Aeroporto :
LOGIN :

Iscrizione | Disclaimer

   EN    FR    IT 

 










Sommario :    VFR   VFR Marginale   IFR   IFR Intensivo   IFR Molto Intensivo
Visibilità : 
Base nubi : 
>= 8 km
>= 3000ft
5 / 8 km
1000 / 3000 ft
1500m / 5 km
500 / 1000 ft
800 / 1500m
200 / 500 ft
< 800m
< 200 ft
Simboli :   Temporali  Nebbia  Neve Forte  Precipitazioni Forti  Vento > 20 kt
SIGMETs :   Varie  Temporali  Ghiacco  Turbolenza  Onda orograficha  Ceneri Vulcaniche






- Altitudine del aeroporto : 19 ft
- Codice IATA : LCY


EGLC - London City

ULTIMO METAR :
  • 250520Z AUTO 00000KT 9999 NCD 18/13 Q1017

METARs OBSOLETI :
  • 250450Z AUTO 24002KT 9999 NCD 18/13 Q1017
  • 250420Z AUTO VRB02KT 9999 NCD 17/13 Q1017
  • 250350Z AUTO 11002KT 9999 NCD 16/13 Q1017
  • 250320Z AUTO VRB03KT 9999 NCD 16/13 Q1017
  • 250250Z AUTO VRB01KT 9999 NCD 17/12 Q1017
  • 250220Z AUTO 00000KT 9999 NCD 18/12 Q1017
  • 250150Z AUTO 11003KT 9999 NCD 18/12 Q1017
  • 250120Z AUTO 08005KT 9999 NCD 17/13 Q1017
  • 250050Z AUTO 08005KT 9999 NCD 18/13 Q1017
  • 250020Z AUTO 09004KT 9999 NCD 18/13 Q1017

TAF TAF EGLC
Valido dal 25 a 03 ore il 25 a 12 ore UTC


250205Z 2503/2512 16004KT CAVOK
ATIS : +44 20 7646 0224



MetMap, La meteo Aeronautica in un colpo d'occhio ! - Copyright ORBIFLY Dicembre 2007 - Disclaimer

ORBIFLY MET'MAP TEAM :

Programmazione e sviluppo : Alexandra Zaïnal
Concezione : Baudouin d'Aumeries
Supporto tecnico e logistico : Manuel Goepfert
Aiuto : Marc-Olivier Méhu
Aiuto per la traduzione : Arnaldo La Scala




FONTI E CREDITI :

   NOAA